• Join FlightAware (Why Join?)
  • Login
  • US Flag 
06:07AM EDT


 

Airport Tracker/Info


-or-


 

Live Flight TrackerFlight Track Log ✈ N510SR ✈ 20-Apr-2014 ✈ KPBI - MYAM / MHH

Flight Track Log - Related Links

Times and Time Zones

All times are in EDT time to prevent confusion due to time zone crossing. See the N510SR flight status page for this flight to view local times or setup timezone preferences in your user account.

Time Position Orientation Groundspeed Altitude Reporting Facility
EDT Latitude Longitude Course Direction KTS MPH feet Rate Location/Type
11:15AM 26.7350 -80.1364 90° East 269 310 7,000  Level Miami Center
11:16AM 26.7247 -80.0339 96° East 309 356 7,000  Level Miami Center
11:17AM 26.7181 -79.9569 96° East 287 330 7,000  Level Miami Center
11:18AM 26.7094 -79.8683 96° East 287 330 7,100  Climbing Miami Center
11:19AM 26.6667 -79.5029 90° East  Level FlightAware Approximate
11:19AM 26.7028 -79.7889 95° East 293 337 7,100  Level Miami Center
11:20AM 26.6667 -79.4047 90° East  Level FlightAware Approximate
11:20AM 26.6942 -79.6911 96° East 288 331 7,100  Level Miami Center
11:21AM 26.6872 -79.6142 96° East 288 331 7,100  Level Miami Center
11:22AM 26.6786 -79.5164 96° East 288 331 7,100 1,320 Level Miami Center
11:23AM 26.6739 -79.4328 94° East 294 338 9,800 2,040 Climbing Miami Center
11:24AM 26.6653 -79.3208 95° East 316 364 11,200 1,500 Climbing Miami Center
11:25AM 26.6608 -79.2114 93° East 347 399 12,800 1,920 Climbing Miami Center
11:26AM 26.6544 -79.0881 93° East 380 437 15,100 1,980 Climbing Miami Center
11:27AM 26.6461 -78.9578 94° East 403 464 16,800 1,620 Climbing Miami Center
11:28AM 26.6353 -78.8183 95° East 428 493 18,400 1,560 Climbing Miami Center
11:29AM 26.6289 -78.6786 93° East 444 511 20,000 1,260 Climbing Miami Center
11:30AM 26.6203 -78.5344 94° East 454 522 21,000 300 Climbing Miami Center
11:31AM 26.6072 -78.3856 96° East 475 547 20,600 -1,200 Descending Miami Center
11:32AM 26.5939 -78.2414 96° East 480 552 18,600 -1,980 Descending Miami Center
11:33AM 26.5847 -78.0994 94° East 472 543 16,700 -1,980 Descending Miami Center
11:34AM 26.5797 -77.9647 92° East 449 517 14,700 -2,100 Descending Miami Center
11:35AM 26.5678 -77.8461 96° East 411 473 12,600 -1,920 Descending Miami Center
11:36AM 26.5581 -77.7392 96° East 378 435 10,900 -1,620 Descending Miami Center
11:37AM 26.5525 -77.6322 93° East 350 403 9,400 -1,500 Descending Miami Center
11:38AM 26.5425 -77.5322 96° East 334 384 7,900 -1,200 Descending Miami Center
11:39AM 26.5347 -77.4278 95° East 317 365 7,100 -840 Descending Miami Center